»·PEaware :: N912NB KSBA-KSJC

N912NB :: KSBA-KSJC

FLIGHT INFORMATION

Flight Status: Arrived
Operator: Privately registered:
United States
More flights under this callsign
Pilot: Patricio R. (14780)
Aircraft: BOEING 737-200
(B732)
More flights by this aircraft type
Origin: KSBA Santa Barbara Mun
United States
Destination: KSJC Mineta San Jose Intl
United States
More flights between these airports :: More routes between these airports
Route: FLOUT5 RZS ROBIE4
File this flight plan on PilotEdge
Remarks:
Altitude:
(Current/Filed)
32,000ft
Speed:
(Current/Filed)
440kts
Departed: 08-Oct-18 11:33 AM
Arrived: 08-Oct-18 12:23 PM
Distance/Time
Traveled:
203nm/0:49
Distance/Time
To Go:
Arrived

Flight Plot

Page will automatically refresh every two minutes.

Flight plan parsing failed; only flown route is shown


Map Options




Map Legend


Flown Route
Filed Route
Departure Airport
Arrival Airport
Navaid (VOR, NDB)
Fix

Horizontal Profiles

Position Reports

Time Latitude Longitude Heading Altitude Ground
Speed
08-Oct-18 11:24 34.422266 -119.836871 74 22ft 0kts
08-Oct-18 11:25 34.422266 -119.836871 74 22ft 0kts
08-Oct-18 11:26 34.422266 -119.836871 74 22ft 0kts
08-Oct-18 11:27 34.422266 -119.836871 74 22ft 0kts
08-Oct-18 11:28 34.422266 -119.836871 74 22ft 0kts
08-Oct-18 11:29 34.422266 -119.836871 74 22ft 0kts
08-Oct-18 11:30 34.422277 -119.836822 74 22ft 0kts
08-Oct-18 11:31 34.422590 -119.836698 327 22ft 0kts
08-Oct-18 11:32 34.423322 -119.837352 354 22ft 11kts
08-Oct-18 11:33 34.426737 -119.837496 89 22ft 10kts
08-Oct-18 11:34 34.427140 -119.834618 359 22ft 2kts
08-Oct-18 11:35 34.427416 -119.862300 267 553ft 192kts
08-Oct-18 11:36 34.385710 -119.888542 164 3036ft 241kts
08-Oct-18 11:37 34.320067 -119.910880 207 3009ft 261kts
08-Oct-18 11:38 34.257199 -119.955050 208 3008ft 262kts
08-Oct-18 11:39 34.203063 -119.926101 97 3013ft 254kts
08-Oct-18 11:40 34.253357 -119.878841 359 6298ft 271kts
08-Oct-18 11:41 34.330209 -119.883510 359 8005ft 279kts
08-Oct-18 11:42 34.398287 -119.851426 31 8008ft 266kts
08-Oct-18 11:43 34.462125 -119.805561 31 8010ft 269kts
08-Oct-18 11:44 34.529330 -119.760582 7 11075ft 280kts
08-Oct-18 11:45 34.594005 -119.808034 315 13881ft 291kts
08-Oct-18 11:46 34.652496 -119.877840 321 16405ft 299kts
08-Oct-18 11:47 34.718753 -119.939834 325 18613ft 306kts
08-Oct-18 11:48 34.789281 -120.000218 326 20569ft 313kts
08-Oct-18 11:49 34.861699 -120.060644 327 22297ft 320kts
08-Oct-18 11:50 34.935702 -120.122070 327 23839ft 325kts
08-Oct-18 11:51 35.010322 -120.184011 327 25208ft 330kts
08-Oct-18 11:52 35.086624 -120.247415 328 26431ft 334kts
08-Oct-18 11:53 35.163526 -120.310818 328 27535ft 338kts
08-Oct-18 11:54 35.241613 -120.375733 328 28524ft 343kts
08-Oct-18 11:55 35.320815 -120.441929 328 29409ft 346kts
08-Oct-18 11:56 35.400268 -120.508545 328 30185ft 350kts
08-Oct-18 11:57 35.481047 -120.576449 328 30895ft 352kts
08-Oct-18 11:58 35.558424 -120.650225 326 31503ft 356kts
08-Oct-18 11:59 35.638545 -120.722348 327 31945ft 361kts
08-Oct-18 12:00 35.722721 -120.794589 327 31947ft 376kts
08-Oct-18 12:01 35.808703 -120.867584 327 31940ft 374kts
08-Oct-18 12:02 35.893584 -120.939806 327 31938ft 369kts
08-Oct-18 12:03 35.977319 -121.011119 327 31936ft 365kts
08-Oct-18 12:04 36.060400 -121.082099 327 31932ft 363kts
08-Oct-18 12:05 36.140921 -121.150379 327 31018ft 360kts
08-Oct-18 12:06 36.222476 -121.219890 327 28680ft 352kts
08-Oct-18 12:07 36.301205 -121.287592 327 26560ft 340kts
08-Oct-18 12:08 36.377457 -121.353423 327 24506ft 329kts
08-Oct-18 12:09 36.453687 -121.419361 327 23853ft 346kts
08-Oct-18 12:10 36.534698 -121.489616 327 23882ft 364kts
08-Oct-18 12:11 36.611502 -121.556674 327 23195ft 319kts
08-Oct-18 12:12 36.684327 -121.616392 345 21125ft 308kts
08-Oct-18 12:13 36.767231 -121.602398 8 19210ft 299kts
08-Oct-18 12:14 36.846692 -121.589024 5 16488ft 284kts
08-Oct-18 12:15 36.923088 -121.580408 4 13490ft 270kts
08-Oct-18 12:16 36.995960 -121.573432 3 10905ft 266kts
08-Oct-18 12:17 37.067625 -121.575715 328 9154ft 262kts
08-Oct-18 12:18 37.116313 -121.641294 317 7511ft 259kts
08-Oct-18 12:19 37.164048 -121.707719 312 5791ft 254kts
08-Oct-18 12:20 37.214076 -121.767098 317 3875ft 237kts
08-Oct-18 12:21 37.260982 -121.818684 319 2568ft 208kts
08-Oct-18 12:22 37.299995 -121.861268 319 1570ft 158kts
08-Oct-18 12:23 37.328080 -121.891953 319 819ft 128kts
08-Oct-18 12:24 37.354796 -121.921249 318 107ft 127kts
08-Oct-18 12:25 37.370281 -121.938418 301 71ft 20kts
08-Oct-18 12:26 37.370294 -121.939638 218 71ft 0kts
08-Oct-18 12:27 37.368527 -121.940420 156 71ft 19kts
08-Oct-18 12:28 37.364190 -121.935762 139 71ft 25kts
08-Oct-18 12:29 37.358757 -121.929776 139 71ft 26kts
08-Oct-18 12:30 37.354957 -121.926429 289 71ft 6kts
08-Oct-18 12:31 37.355089 -121.926520 13 71ft 0kts

Navigation Log

Ident Type
Flight plan parsing failed, navigation log unavailable